| time (UTC) | temp F | wind direction | speed knots | gust knots | rain 1hr in | rain 24hr in | rain mn in | humidity % | barometer mb |
| 20260507003057 | 63 | 53 | 2.6 | 13.0 | 0.00 | 0.00 | 0.00 | 22 | 1019.1 |
| 20260507001610 | 64 | 78 | 2.6 | 10.4 | 0.00 | 0.00 | 0.00 | 20 | 1018.9 |
| 20260507000054 | 64 | 350 | 4.3 | 10.4 | 0.00 | 0.00 | 0.00 | 18 | 1018.8 |
| 20260506234601 | 64 | 42 | 2.6 | 13.0 | 0.00 | 0.00 | 0.00 | 18 | 1018.6 |
| 20260506233053 | 65 | 331 | 3.5 | 10.4 | 0.00 | 0.00 | 0.00 | 19 | 1018.7 |
| 20260506231556 | 65 | 348 | 3.5 | 13.0 | 0.00 | 0.00 | 0.00 | 21 | 1018.6 |
| 20260506230056 | 65 | 15 | 2.6 | 13.0 | 0.00 | 0.00 | 0.00 | 22 | 1018.6 |
| 20260506224606 | 66 | 338 | 2.6 | 11.3 | 0.00 | 0.00 | 0.00 | 22 | 1018.6 |
| 20260506223058 | 65 | 51 | 2.6 | 9.6 | 0.00 | 0.00 | 0.00 | 22 | 1018.7 |
| 20260506221552 | 65 | 30 | 4.3 | 11.3 | 0.00 | 0.00 | 0.00 | 22 | 1018.7 |
| 20260506220106 | 66 | 355 | 3.5 | 12.2 | 0.00 | 0.00 | 0.00 | 23 | 1018.8 |
| 20260506214555 | 66 | 355 | 2.6 | 11.3 | 0.00 | 0.00 | 0.00 | 24 | 1018.7 |
| 20260506213055 | 65 | 351 | 2.6 | 13.9 | 0.00 | 0.00 | 0.00 | 25 | 1018.8 |
| 20260506211557 | 65 | 86 | 5.2 | 13.0 | 0.00 | 0.00 | 0.00 | 26 | 1018.7 |
| 20260506210055 | 64 | 329 | 4.3 | 16.5 | 0.00 | 0.00 | 0.00 | 27 | 1018.8 |
| 20260506204554 | 64 | 360 | 3.5 | 14.8 | 0.00 | 0.00 | 0.00 | 28 | 1018.7 |
| 20260506203058 | 64 | 9 | 3.5 | 12.2 | 0.00 | 0.00 | 0.00 | 29 | 1018.6 |
| 20260506201553 | 64 | 70 | 4.3 | 13.9 | 0.00 | 0.00 | 0.00 | 31 | 1018.4 |
| 20260506200052 | 64 | 5 | 5.2 | 14.8 | 0.00 | 0.00 | 0.00 | 35 | 1018.5 |
| 20260506194554 | 65 | 336 | 3.5 | 11.3 | 0.00 | 0.00 | 0.00 | 32 | 1018.6 |
| 20260506193053 | 63 | 343 | 5.2 | 14.8 | 0.00 | 0.00 | 0.00 | 35 | 1018.4 |
| 20260506191551 | 63 | 330 | 5.2 | 13.0 | 0.00 | 0.00 | 0.00 | 36 | 1018.4 |
| 20260506190047 | 65 | 36 | 3.5 | 12.2 | 0.00 | 0.00 | 0.00 | 37 | 1018.4 |
| 20260506184549 | 64 | 5 | 5.2 | 14.8 | 0.00 | 0.00 | 0.00 | 34 | 1018.4 |
| 20260506183100 | 63 | 5 | 2.6 | 11.3 | 0.00 | 0.00 | 0.00 | 37 | 1018.4 |
| 20260506181600 | 61 | 319 | 3.5 | 9.6 | 0.00 | 0.00 | 0.00 | 41 | 1018.4 |
| 20260506180050 | 62 | 98 | 2.6 | 9.6 | 0.00 | 0.00 | 0.00 | 41 | 1018.3 |
| 20260506174551 | 61 | 53 | 3.5 | 13.0 | 0.00 | 0.00 | 0.00 | 41 | 1018.4 |
| 20260506173121 | 59 | 360 | 3.5 | 13.0 | 0.00 | 0.00 | 0.00 | 43 | 1018.3 |
| 20260506171601 | 59 | 355 | 2.6 | 10.4 | 0.00 | 0.00 | 0.00 | 43 | 1018.0 |
| 20260506170058 | 59 | 54 | 3.5 | 13.0 | 0.00 | 0.00 | 0.00 | 44 | 1018.0 |
| 20260506164550 | 57 | 346 | 2.6 | 10.4 | 0.00 | 0.00 | 0.00 | 48 | 1017.8 |
| 20260506163051 | 57 | 343 | 0.9 | 6.1 | 0.00 | 0.00 | 0.00 | 45 | 1017.8 |
| 20260506161555 | 57 | 32 | 1.7 | 5.2 | 0.00 | 0.00 | 0.00 | 45 | 1017.6 |
| 20260506160107 | 54 | 26 | 0.0 | 3.5 | 0.00 | 0.00 | 0.00 | 50 | 1017.6 |
| 20260506154551 | 53 | 0 | 0.0 | 1.7 | 0.00 | 0.00 | 0.00 | 50 | 1017.6 |
| 20260506153050 | 52 | 0 | 0.0 | 2.6 | 0.00 | 0.00 | 0.00 | 49 | 1017.4 |
| 20260506151555 | 51 | 0 | 0.0 | 1.7 | 0.00 | 0.00 | 0.00 | 49 | 1017.2 |
| 20260506150052 | 50 | 0 | 0.0 | 3.5 | 0.00 | 0.00 | 0.00 | 50 | 1017.0 |
| 20260506144554 | 49 | 313 | 0.0 | 2.6 | 0.00 | 0.00 | 0.00 | 51 | 1017.0 |
| 20260506143053 | 48 | 0 | 0.0 | 0.9 | 0.00 | 0.00 | 0.00 | 53 | 1016.8 |
| 20260506141554 | 47 | 0 | 0.0 | 0.9 | 0.00 | 0.00 | 0.00 | 52 | 1016.7 |
| 20260506140053 | 47 | 0 | 0.0 | 1.7 | 0.00 | 0.00 | 0.00 | 54 | 1016.5 |
| 20260506134603 | 47 | 0 | 0.0 | 1.7 | 0.00 | 0.00 | 0.00 | 54 | 1016.1 |
| 20260506133058 | 46 | 242 | 0.9 | 2.6 | 0.00 | 0.00 | 0.00 | 53 | 1016.1 |
| 20260506131600 | 45 | 242 | 0.0 | 1.7 | 0.00 | 0.00 | 0.00 | 53 | 1015.8 |
| 20260506130056 | 45 | 242 | 1.7 | 4.3 | 0.00 | 0.00 | 0.00 | 52 | 1015.6 |
| 20260506124600 | 45 | 244 | 1.7 | 4.3 | 0.00 | 0.00 | 0.00 | 52 | 1015.3 |
| 20260506123054 | 44 | 229 | 0.9 | 3.5 | 0.00 | 0.00 | 0.00 | 53 | 1014.9 |
| 20260506121552 | 45 | 0 | 0.0 | 0.9 | 0.00 | 0.00 | 0.00 | 52 | 1014.4 |
| 20260506120056 | 46 | 344 | 0.9 | 4.3 | 0.00 | 0.00 | 0.00 | 51 | 1014.6 |
| 20260506114553 | 46 | 265 | 0.0 | 2.6 | 0.00 | 0.00 | 0.00 | 51 | 1014.3 |
| 20260506113054 | 45 | 265 | 0.0 | 1.7 | 0.00 | 0.00 | 0.00 | 53 | 1014.1 |
| 20260506111558 | 45 | 265 | 0.9 | 2.6 | 0.00 | 0.00 | 0.00 | 51 | 1014.1 |
| 20260506110055 | 45 | 250 | 0.0 | 3.5 | 0.00 | 0.00 | 0.00 | 50 | 1014.0 |
| 20260506104557 | 46 | 236 | 0.0 | 2.6 | 0.00 | 0.00 | 0.00 | 49 | 1013.9 |
| 20260506103053 | 46 | 239 | 1.7 | 6.1 | 0.00 | 0.00 | 0.00 | 47 | 1013.8 |
| 20260506101551 | 46 | 0 | 0.0 | 2.6 | 0.00 | 0.00 | 0.00 | 48 | 1013.8 |
| 20260506100050 | 46 | 196 | 0.0 | 4.3 | 0.00 | 0.00 | 0.00 | 47 | 1013.8 |
| 20260506094609 | 47 | 0 | 0.0 | 3.5 | 0.00 | 0.00 | 0.00 | 46 | 1013.6 |
| 20260506093051 | 47 | 0 | 1.7 | 7.0 | 0.00 | 0.00 | 0.00 | 45 | 1013.5 |
| 20260506091553 | 47 | 149 | 0.0 | 2.6 | 0.00 | 0.00 | 0.00 | 46 | 1013.4 |
| 20260506090051 | 47 | 0 | 0.0 | 4.3 | 0.00 | 0.00 | 0.00 | 44 | 1013.4 |
| 20260506084551 | 48 | 0 | 0.0 | 5.2 | 0.00 | 0.00 | 0.00 | 44 | 1013.2 |
| 20260506083053 | 48 | 160 | 2.6 | 6.1 | 0.00 | 0.00 | 0.00 | 43 | 1013.1 |
| 20260506081554 | 49 | 218 | 0.0 | 1.7 | 0.00 | 0.00 | 0.00 | 44 | 1013.2 |
| 20260506073051 | 50 | 0 | 0.9 | 5.2 | 0.00 | 0.00 | 0.00 | 39 | 1013.0 |
| 20260506071554 | 52 | 207 | 0.9 | 10.4 | 0.00 | 0.00 | 0.00 | 37 | 1012.7 |
| 20260506061557 | 53 | 199 | 4.3 | 10.4 | 0.00 | 0.00 | 0.00 | 35 | 1012.3 |
| 20260506060109 | 53 | 242 | 3.5 | 12.2 | 0.00 | 0.00 | 0.00 | 36 | 1012.2 |
| 20260506044607 | 53 | 0 | 0.9 | 8.7 | 0.00 | 0.00 | 0.00 | 39 | 1012.0 |
| 20260506043054 | 53 | 266 | 3.5 | 9.6 | 0.00 | 0.00 | 0.00 | 40 | 1012.0 |
| 20260506041602 | 53 | 249 | 2.6 | 8.7 | 0.00 | 0.00 | 0.00 | 39 | 1011.8 |
| 20260506040054 | 53 | 282 | 1.7 | 6.1 | 0.00 | 0.00 | 0.00 | 38 | 1011.9 |
| 20260506034549 | 54 | 304 | 2.6 | 9.6 | 0.00 | 0.00 | 0.00 | 38 | 1011.5 |
| 20260506033051 | 53 | 0 | 0.9 | 7.0 | 0.00 | 0.00 | 0.00 | 37 | 1011.1 |
| 20260506031557 | 53 | 238 | 0.0 | 1.7 | 0.00 | 0.00 | 0.00 | 36 | 1010.8 |
| 20260506030052 | 53 | 215 | 0.0 | 1.7 | 0.00 | 0.00 | 0.00 | 35 | 1010.7 |
| 20260506024600 | 54 | 0 | 0.0 | 3.5 | 0.00 | 0.00 | 0.00 | 35 | 1010.6 |
| 20260506023058 | 54 | 217 | 0.0 | 2.6 | 0.00 | 0.00 | 0.00 | 34 | 1010.3 |
| 20260506021552 | 55 | 175 | 0.9 | 5.2 | 0.00 | 0.00 | 0.00 | 33 | 1010.1 |
| 20260506020054 | 57 | 0 | 0.9 | 4.3 | 0.00 | 0.00 | 0.00 | 32 | 1009.7 |
| 20260506014553 | 57 | 175 | 1.7 | 4.3 | 0.00 | 0.00 | 0.00 | 33 | 1009.3 |
| 20260506013054 | 58 | 119 | 0.9 | 3.5 | 0.00 | 0.00 | 0.00 | 31 | 1009.2 |
| 20260506011553 | 58 | 213 | 1.7 | 6.1 | 0.00 | 0.00 | 0.00 | 32 | 1009.2 |
| 20260506010055 | 58 | 169 | 1.7 | 8.7 | 0.00 | 0.00 | 0.00 | 33 | 1009.2 |
| 20260506004555 | 59 | 0 | 2.6 | 8.7 | 0.00 | 0.00 | 0.00 | 33 | 1008.9 |